Главная страница
METAR-TAF:

METAR-TAF

Аэропорты :

Кируна, Швеция

широта: 67-49N, долгота: 020-20E, высота над уровнем моря: 452 м

Текущие метеонаблюдения

Эта сводка был подготовлена 27 минут назад, в 19:20 UTC
Ветер 2 Узел от западный
Температура 13°C
Влажность 67%
Давление 1013 hPa
Видимость 10 км и более
небольшая облачность на высоте 4000 фута

METAR: ESNQ 131920Z 26002KT 9999 FEW040 13/07 Q1013

Время: 21:47 (19:47 UTC)

Прогноз

Эта сводка был подготовлена 2 часа и 17 минут назад, в 17:30 UTC
Прогноз действительный с 13-го 18 UTC до 13-го 21 UTC
Ветер 3 Узел переменных направлений
Видимость 10 км и более
Нет облачности ниже 1500 м, и нет кучево-дождевой облачности
временами
С 13-го 18 UTC до 13-го 21 UTC
Рассеянная облачность на высоте 4000 фута, Кучево-дождевые.
ливневые дожди,

TAF: ESNQ 131730Z 1318/1321 VRB03KT CAVOK TEMPO 1318/1321 SHRA BKN040CB

Метеонаблюдения и прогнозы для более 4000 аэропортов (сводки METAR и TAF).

Имеющиеся станции представлены на карте желтыми и красными точками.

Чтобы увидеть название станции, наведите на нее мышь.

Затем щелкните, чтобы увидеть метеонаблюдения и метеопрогнозы.

Управление картой: чтобы увеличить масштаб, щелкните зеленые кнопки с черным крестиком; чтобы уменьшить масштаб, щелкните зеленую кнопку с тире; для просмотра соседних карт щелкайте зеленые стрелки.


METAR-TAF: